createdAt,value
2023-04-23T00:01:17.196Z,97849.81
2023-04-23T00:04:21.409Z,97855.55
2023-04-23T00:07:23.503Z,97853.11
2023-04-23T00:10:26.532Z,97851.61
2023-04-23T00:13:28.536Z,97853.14
2023-04-23T00:16:30.642Z,97844.77
2023-04-23T00:19:32.283Z,97844.30
2023-04-23T00:22:33.978Z,97841.48
2023-04-23T00:25:35.668Z,97837.30
2023-04-23T00:28:37.609Z,97839.39
2023-04-23T00:31:39.660Z,97834.84
2023-04-23T00:34:41.777Z,97831.65
2023-04-23T00:37:44.036Z,97827.38
2023-04-23T00:40:45.993Z,97827.15
2023-04-23T00:43:52.531Z,97824.29
2023-04-23T00:46:55.267Z,97820.33
2023-04-23T00:49:58.713Z,97819.88
2023-04-23T00:53:00.718Z,97820.80
2023-04-23T00:56:04.826Z,97819.81
2023-04-23T00:59:06.590Z,97819.84
2023-04-23T01:02:08.546Z,97816.73
2023-04-23T01:05:11.391Z,97821.64
2023-04-23T01:08:16.017Z,97818.05
2023-04-23T01:11:18.039Z,97818.23
2023-04-23T01:14:20.280Z,97820.37
2023-04-23T01:17:22.292Z,97818.97
2023-04-23T01:20:24.063Z,97821.43
2023-04-23T01:23:26.640Z,97821.03
2023-04-23T01:26:28.305Z,97823.30
2023-04-23T01:29:31.297Z,97823.84
2023-04-23T01:32:33.332Z,97822.85
2023-04-23T01:35:35.922Z,97820.04
2023-04-23T01:38:38.356Z,97817.16
2023-04-23T01:41:40.997Z,97815.98
2023-04-23T01:44:43.736Z,97817.16
2023-04-23T01:47:47.099Z,97818.77
2023-04-23T01:50:50.778Z,97819.28
2023-04-23T01:53:52.711Z,97816.21
2023-04-23T01:56:55.213Z,97817.52
2023-04-23T02:00:10.688Z,97817.83
2023-04-23T02:03:15.919Z,97819.75
2023-04-23T02:06:17.988Z,97820.13
2023-04-23T02:09:19.675Z,97817.41
2023-04-23T02:12:21.625Z,97820.38
2023-04-23T02:15:23.317Z,97816.85
2023-04-23T02:18:25.216Z,97814.53
2023-04-23T02:21:27.366Z,97810.45
2023-04-23T02:24:29.142Z,97806.55
2023-04-23T02:27:32.717Z,97803.98
2023-04-23T02:30:34.979Z,97804.39
2023-04-23T02:33:36.604Z,97798.80
2023-04-23T02:36:38.605Z,97795.61
2023-04-23T02:39:40.385Z,97794.17
2023-04-23T02:42:43.867Z,97793.42
2023-04-23T02:45:45.846Z,97793.16
2023-04-23T02:48:47.533Z,97791.79
2023-04-23T02:51:49.400Z,97794.13
2023-04-23T02:54:51.257Z,97791.41
2023-04-23T02:57:53.019Z,97793.82
2023-04-23T03:00:56.302Z,97793.92
2023-04-23T03:03:58.748Z,97790.33
2023-04-23T03:07:00.672Z,97789.17
2023-04-23T03:10:02.958Z,97788.80
2023-04-23T03:13:04.780Z,97789.23
2023-04-23T03:16:06.689Z,97784.77
2023-04-23T03:19:09.246Z,97789.35
2023-04-23T03:22:11.181Z,97786.39
2023-04-23T03:25:12.951Z,97788.62
2023-04-23T03:28:14.717Z,97786.62
2023-04-23T03:31:16.520Z,97783.98
2023-04-23T03:34:18.617Z,97780.61
2023-04-23T03:37:20.286Z,97790.40
2023-04-23T03:40:22.627Z,97790.20
2023-04-23T03:43:27.203Z,97790.14
2023-04-23T03:46:37.846Z,97792.19
2023-04-23T03:49:39.811Z,97791.58
2023-04-23T03:52:42.242Z,97790.25
2023-04-23T03:55:47.670Z,97785.61
2023-04-23T03:58:50.387Z,97787.66
2023-04-23T04:01:52.216Z,97787.82
2023-04-23T04:04:54.573Z,97788.77
2023-04-23T04:07:58.236Z,97792.63
2023-04-23T04:11:00.814Z,97793.90
2023-04-23T04:14:02.545Z,97794.05
2023-04-23T04:17:04.224Z,97793.73
2023-04-23T04:20:10.565Z,97790.96
2023-04-23T04:23:12.232Z,97791.91
2023-04-23T04:26:14.703Z,97791.50
2023-04-23T04:29:16.333Z,97790.64
2023-04-23T04:32:18.454Z,97790.48
2023-04-23T04:35:20.227Z,97791.30
2023-04-23T04:38:21.914Z,97790.88
2023-04-23T04:41:27.740Z,97790.12
2023-04-23T04:44:30.041Z,97791.98
2023-04-23T04:47:32.141Z,97790.95
2023-04-23T04:50:34.429Z,97793.73
2023-04-23T04:53:36.166Z,97794.37
2023-04-23T04:56:37.929Z,97798.83
2023-04-23T04:59:39.883Z,97802.95
2023-04-23T05:02:41.918Z,97800.84
2023-04-23T05:05:44.720Z,97803.52
2023-04-23T05:08:49.244Z,97806.73
2023-04-23T05:11:51.319Z,97798.17
2023-04-23T05:14:54.338Z,97799.90
2023-04-23T05:17:56.215Z,97800.92
2023-04-23T05:20:58.518Z,97802.79
2023-04-23T05:24:07.571Z,97804.27
2023-04-23T05:27:09.729Z,97798.82
2023-04-23T05:30:11.930Z,97798.00
2023-04-23T05:33:13.909Z,97795.05
2023-04-23T05:36:17.427Z,97801.53
2023-04-23T05:39:19.305Z,97799.36
2023-04-23T05:42:21.462Z,97795.91
2023-04-23T05:45:23.186Z,97798.25
2023-04-23T05:48:24.978Z,97792.84
2023-04-23T05:51:26.896Z,97794.87
2023-04-23T05:54:28.991Z,97792.70
2023-04-23T05:57:30.741Z,97792.52
2023-04-23T06:00:34.841Z,97797.04
2023-04-23T06:03:37.020Z,97795.10
2023-04-23T06:06:39.285Z,97797.80
2023-04-23T06:09:41.221Z,97798.91
2023-04-23T06:12:43.149Z,97800.69
2023-04-23T06:15:45.110Z,97798.42
2023-04-23T06:18:46.884Z,97798.95
2023-04-23T06:21:50.098Z,97800.55
2023-04-23T06:25:01.678Z,97797.77
2023-04-23T06:28:03.921Z,97796.80
2023-04-23T06:31:09.100Z,97797.69
2023-04-23T06:34:10.912Z,97797.39
2023-04-23T06:37:12.693Z,97795.63
2023-04-23T06:40:14.656Z,97793.80
2023-04-23T06:43:16.437Z,97791.64
2023-04-23T06:46:53.413Z,97788.98
2023-04-23T06:49:55.125Z,97788.12
2023-04-23T06:52:56.944Z,97787.03
2023-04-23T06:55:58.654Z,97783.94
2023-04-23T06:59:00.710Z,97781.98
2023-04-23T07:02:02.496Z,97780.23
2023-04-23T07:05:04.722Z,97780.41
2023-04-23T07:08:06.434Z,97779.78
2023-04-23T07:11:10.077Z,97776.20
2023-04-23T07:14:11.824Z,97779.30
2023-04-23T07:17:13.964Z,97777.12
2023-04-23T07:20:16.079Z,97777.11
2023-04-23T07:23:20.708Z,97774.08
2023-04-23T07:26:27.535Z,97775.23
2023-04-23T07:29:29.411Z,97770.23
2023-04-23T07:32:31.414Z,97768.48
2023-04-23T07:35:33.363Z,97771.69
2023-04-23T07:38:35.282Z,97771.47
2023-04-23T07:41:42.967Z,97769.48
2023-04-23T07:44:44.965Z,97767.26
2023-04-23T07:47:49.357Z,97765.14
2023-04-23T07:50:51.357Z,97766.37
2023-04-23T07:53:53.887Z,97762.71
2023-04-23T07:56:56.848Z,97760.52
2023-04-23T07:59:58.660Z,97759.79
2023-04-23T08:03:00.575Z,97754.45
2023-04-23T08:06:04.114Z,97747.07
2023-04-23T08:09:05.921Z,97745.05
2023-04-23T08:12:07.706Z,97748.21
2023-04-23T08:15:10.180Z,97748.42
2023-04-23T08:18:14.887Z,97744.61
2023-04-23T08:21:16.975Z,97744.56
2023-04-23T08:24:18.589Z,97741.23
2023-04-23T08:27:21.132Z,97741.19
2023-04-23T08:30:23.072Z,97739.98
2023-04-23T08:33:24.964Z,97736.09
2023-04-23T08:36:27.880Z,97735.39
2023-04-23T08:39:32.354Z,97737.95
2023-04-23T08:42:47.994Z,97731.40
2023-04-23T08:45:49.929Z,97726.64
2023-04-23T08:48:52.687Z,97728.63
2023-04-23T08:51:58.403Z,97731.25
2023-04-23T08:55:01.490Z,97724.02
2023-04-23T08:58:05.713Z,97717.52
2023-04-23T09:01:07.905Z,97715.51
2023-04-23T09:04:10.598Z,97723.84
2023-04-23T09:07:12.725Z,97714.36
2023-04-23T09:10:17.694Z,97711.48
2023-04-23T09:13:20.364Z,97709.22
2023-04-23T09:16:22.117Z,97707.55
2023-04-23T09:19:29.909Z,97708.98
2023-04-23T09:23:00.970Z,97708.15
2023-04-23T09:26:06.388Z,97702.73
2023-04-23T09:29:13.173Z,97703.86
2023-04-23T09:32:15.068Z,97703.73
2023-04-23T09:35:20.937Z,97700.44
2023-04-23T09:38:22.847Z,97695.28
2023-04-23T09:41:26.468Z,97692.92
2023-04-23T09:44:34.885Z,97690.91
2023-04-23T09:47:48.167Z,97692.42
2023-04-23T09:50:49.952Z,97689.23
2023-04-23T09:53:52.519Z,97683.05
2023-04-23T09:57:00.269Z,97679.76
2023-04-23T10:03:15.985Z,97671.33
2023-04-23T10:06:39.527Z,97673.09
2023-04-23T10:09:41.421Z,97664.57
2023-04-23T10:12:54.146Z,97661.80
2023-04-23T10:16:07.463Z,97660.79
2023-04-23T10:19:19.482Z,97655.60
2023-04-23T10:22:21.830Z,97657.73
2023-04-23T10:25:24.999Z,97649.00
2023-04-23T10:28:31.284Z,97644.80
2023-04-23T10:31:33.511Z,97642.48
2023-04-23T10:34:37.528Z,97644.01
2023-04-23T10:37:42.061Z,97636.48
2023-04-23T10:40:48.524Z,97639.17
2023-04-23T10:43:52.757Z,97634.60
2023-04-23T10:46:57.401Z,97628.42
2023-04-23T10:50:18.011Z,97620.46
2023-04-23T10:53:22.819Z,97626.59
2023-04-23T10:56:27.556Z,97632.67
2023-04-23T10:59:31.913Z,97627.63
2023-04-23T11:02:44.164Z,97622.42
2023-04-23T11:05:46.125Z,97618.13
2023-04-23T11:08:53.152Z,97616.75
2023-04-23T11:11:55.119Z,97622.85
2023-04-23T11:14:59.037Z,97623.38
2023-04-23T11:18:01.511Z,97613.55
2023-04-23T11:21:04.051Z,97612.73
2023-04-23T11:24:07.225Z,97613.69
2023-04-23T11:27:12.442Z,97611.69
2023-04-23T11:30:19.691Z,97607.64
2023-04-23T11:33:21.578Z,97606.16
2023-04-23T11:36:23.569Z,97604.25
2023-04-23T11:39:26.376Z,97599.72
2023-04-23T11:42:28.876Z,97597.36
2023-04-23T11:45:30.797Z,97596.81
2023-04-23T11:48:34.496Z,97596.09
2023-04-23T11:51:42.517Z,97597.20
2023-04-23T11:54:44.230Z,97596.70
2023-04-23T11:57:48.162Z,97585.87
2023-04-23T12:00:57.461Z,97585.71
2023-04-23T12:03:59.491Z,97586.67
2023-04-23T12:07:04.331Z,97588.52
2023-04-23T12:10:17.496Z,97591.61
2023-04-23T12:13:23.859Z,97587.89
2023-04-23T12:16:55.377Z,97576.34
2023-04-23T12:19:57.101Z,97570.80
2023-04-23T12:23:04.921Z,97572.05
2023-04-23T12:26:14.691Z,97571.98
2023-04-23T12:29:17.756Z,97569.58
2023-04-23T12:32:23.860Z,97563.95
2023-04-23T12:35:41.752Z,97570.50
2023-04-23T12:38:43.857Z,97572.61
2023-04-23T12:41:45.414Z,97555.20
2023-04-23T12:44:47.625Z,97557.29
2023-04-23T12:47:50.340Z,97555.55
2023-04-23T12:50:52.701Z,97553.20
2023-04-23T12:53:54.363Z,97556.23
2023-04-23T12:56:56.152Z,97551.60
2023-04-23T12:59:57.929Z,97555.20
2023-04-23T13:02:59.720Z,97550.03
2023-04-23T13:06:01.450Z,97549.37
2023-04-23T13:09:04.710Z,97548.23
2023-04-23T13:12:06.415Z,97543.67
2023-04-23T13:15:08.608Z,97539.42
2023-04-23T13:18:10.361Z,97536.83
2023-04-23T13:21:12.344Z,97532.17
2023-04-23T13:24:14.139Z,97526.90
2023-04-23T13:27:15.799Z,97526.54
2023-04-23T13:30:17.555Z,97530.73
2023-04-23T13:33:20.545Z,97523.17
2023-04-23T13:36:23.456Z,97519.77
2023-04-23T13:39:25.346Z,97518.85
2023-04-23T13:42:26.968Z,97517.42
2023-04-23T13:45:28.796Z,97514.14
2023-04-23T13:48:30.896Z,97510.91
2023-04-23T13:51:36.130Z,97509.90
2023-04-23T13:54:39.256Z,97495.86
2023-04-23T13:57:41.062Z,97496.17
2023-04-23T14:00:43.412Z,97496.33
2023-04-23T14:03:46.657Z,97497.19
2023-04-23T14:06:48.590Z,97496.38
2023-04-23T14:09:52.175Z,97493.35
2023-04-23T14:12:55.055Z,97492.48
2023-04-23T14:15:56.792Z,97487.42
2023-04-23T14:18:58.512Z,97478.20
2023-04-23T14:22:00.302Z,97480.02
2023-04-23T14:25:08.057Z,97487.52
2023-04-23T14:28:32.760Z,97479.97
2023-04-23T14:31:37.497Z,97478.57
2023-04-23T14:34:39.290Z,97478.91
2023-04-23T14:37:44.287Z,97482.83
2023-04-23T14:40:46.227Z,97478.94
2023-04-23T14:43:47.831Z,97481.50
2023-04-23T14:46:50.550Z,97484.92
2023-04-23T14:49:52.739Z,97481.06
2023-04-23T14:52:54.800Z,97482.08
2023-04-23T14:55:56.521Z,97481.10
2023-04-23T14:58:58.250Z,97479.80
2023-04-23T15:02:00.717Z,97478.13
2023-04-23T15:05:02.620Z,97474.14
2023-04-23T15:08:04.387Z,97475.59
2023-04-23T15:11:12.481Z,97472.16
2023-04-23T15:14:35.852Z,97472.57
2023-04-23T15:17:37.587Z,97466.94
2023-04-23T15:20:39.558Z,97470.09
2023-04-23T15:23:41.625Z,97468.36
2023-04-23T15:26:44.990Z,97467.08
2023-04-23T15:29:46.727Z,97459.48
2023-04-23T15:32:48.586Z,97462.91
2023-04-23T15:35:53.365Z,97466.52
2023-04-23T15:38:55.174Z,97458.85
2023-04-23T15:41:57.585Z,97460.20
2023-04-23T15:44:59.473Z,97458.81
2023-04-23T15:48:01.296Z,97453.02
2023-04-23T15:51:03.233Z,97451.46
2023-04-23T15:54:07.519Z,97448.45
2023-04-23T15:57:09.376Z,97448.27
2023-04-23T16:00:11.937Z,97446.06
2023-04-23T16:03:14.474Z,97447.70
2023-04-23T16:06:16.446Z,97445.70
2023-04-23T16:09:18.453Z,97446.74
2023-04-23T16:12:34.679Z,97441.13
2023-04-23T16:15:36.618Z,97440.33
2023-04-23T16:18:38.352Z,97435.65
2023-04-23T16:21:40.239Z,97436.04
2023-04-23T16:24:41.961Z,97431.35
2023-04-23T16:27:43.994Z,97432.98
2023-04-23T16:30:45.834Z,97432.30
2023-04-23T16:33:47.575Z,97437.09
2023-04-23T16:36:49.328Z,97433.92
2023-04-23T16:39:51.086Z,97433.13
2023-04-23T16:42:53.198Z,97433.54
2023-04-23T16:45:55.159Z,97428.94
2023-04-23T16:48:59.887Z,97428.80
2023-04-23T16:52:02.908Z,97430.45
2023-04-23T16:55:05.341Z,97427.57
2023-04-23T16:58:09.397Z,97429.99
2023-04-23T17:01:11.515Z,97427.07
2023-04-23T17:04:13.470Z,97428.41
2023-04-23T17:07:15.349Z,97428.05
2023-04-23T17:10:18.235Z,97429.74
2023-04-23T17:13:20.054Z,97425.97
2023-04-23T17:16:22.465Z,97426.05
2023-04-23T17:19:24.291Z,97423.05
2023-04-23T17:22:26.779Z,97423.92
2023-04-23T17:25:28.608Z,97424.67
2023-04-23T17:28:30.362Z,97421.48
2023-04-23T17:31:32.259Z,97423.83
2023-04-23T17:34:34.356Z,97422.40
2023-04-23T17:37:35.912Z,97422.16
2023-04-23T17:40:39.381Z,97421.04
2023-04-23T17:43:41.293Z,97422.67
2023-04-23T17:46:42.997Z,97424.42
2023-04-23T17:49:44.794Z,97424.16
2023-04-23T17:52:46.634Z,97424.77
2023-04-23T17:55:48.395Z,97427.71
2023-04-23T17:58:50.602Z,97432.13
2023-04-23T18:01:52.408Z,97430.39
2023-04-23T18:04:54.935Z,97435.98
2023-04-23T18:07:57.580Z,97437.21
2023-04-23T18:10:59.740Z,97440.70
2023-04-23T18:14:01.865Z,97440.60
2023-04-23T18:17:03.551Z,97445.69
2023-04-23T18:20:06.149Z,97446.59
2023-04-23T18:23:09.057Z,97451.29
2023-04-23T18:26:10.805Z,97453.15
2023-04-23T18:29:12.485Z,97445.60
2023-04-23T18:32:24.015Z,97452.00
2023-04-23T18:35:29.556Z,97452.38
2023-04-23T18:38:38.376Z,97450.40
2023-04-23T18:41:40.096Z,97454.48
2023-04-23T18:44:42.070Z,97453.45
2023-04-23T18:47:50.680Z,97458.02
2023-04-23T18:50:56.625Z,97459.38
2023-04-23T18:54:00.925Z,97461.52
2023-04-23T18:57:02.721Z,97461.46
2023-04-23T19:00:05.432Z,97459.60
2023-04-23T19:03:19.468Z,97457.25
2023-04-23T19:06:27.577Z,97454.00
2023-04-23T19:09:29.368Z,97456.13
2023-04-23T19:12:31.102Z,97454.50
2023-04-23T19:15:32.896Z,97459.10
2023-04-23T19:18:35.365Z,97461.70
2023-04-23T19:21:37.362Z,97467.41
2023-04-23T19:24:39.111Z,97470.86
2023-04-23T19:27:40.788Z,97475.04
2023-04-23T19:30:42.726Z,97477.27
2023-04-23T19:33:45.692Z,97479.10
2023-04-23T19:36:47.454Z,97478.94
2023-04-23T19:39:49.636Z,97475.17
2023-04-23T19:42:51.206Z,97473.39
2023-04-23T19:45:52.961Z,97468.30
2023-04-23T19:48:55.000Z,97465.02
2023-04-23T19:51:57.530Z,97460.40
2023-04-23T19:54:59.231Z,97460.20
2023-04-23T19:58:05.539Z,97453.05
2023-04-23T20:01:07.308Z,97450.60
2023-04-23T20:04:09.331Z,97448.15
2023-04-23T20:07:11.891Z,97446.61
2023-04-23T20:10:15.743Z,97441.79
2023-04-23T20:13:19.982Z,97441.70
2023-04-23T20:16:21.766Z,97436.92
2023-04-23T20:19:26.343Z,97435.42
2023-04-23T20:22:29.044Z,97436.10
2023-04-23T20:25:31.422Z,97433.23
2023-04-23T20:28:33.728Z,97436.50
2023-04-23T20:31:35.895Z,97434.34
2023-04-23T20:34:37.537Z,97430.08
2023-04-23T20:37:40.159Z,97432.33
2023-04-23T20:40:41.839Z,97432.45
2023-04-23T20:43:43.648Z,97434.23
2023-04-23T20:46:45.768Z,97429.45
2023-04-23T20:49:47.974Z,97425.77
2023-04-23T20:52:49.758Z,97421.20
2023-04-23T20:55:51.755Z,97422.55
2023-04-23T20:58:53.475Z,97425.14
2023-04-23T21:01:55.334Z,97421.76
2023-04-23T21:04:57.138Z,97423.31
2023-04-23T21:07:58.901Z,97421.59
2023-04-23T21:11:01.256Z,97421.68
2023-04-23T21:14:03.058Z,97417.06
2023-04-23T21:17:05.117Z,97416.23
2023-04-23T21:20:07.897Z,97409.81
2023-04-23T21:23:12.640Z,97411.23
2023-04-23T21:26:14.456Z,97408.91
2023-04-23T21:29:16.169Z,97413.88
2023-04-23T21:32:17.910Z,97410.16
2023-04-23T21:35:19.601Z,97410.11
2023-04-23T21:38:21.595Z,97406.64
2023-04-23T21:41:23.924Z,97408.27
2023-04-23T21:44:27.866Z,97405.39
2023-04-23T21:47:29.741Z,97403.81
2023-04-23T21:50:32.158Z,97399.65
2023-04-23T21:53:33.999Z,97400.02
2023-04-23T21:56:35.794Z,97397.30
2023-04-23T21:59:37.577Z,97398.66
2023-04-23T22:02:41.428Z,97397.60
2023-04-23T22:05:43.456Z,97397.70
2023-04-23T22:08:46.134Z,97393.27
2023-04-23T22:12:01.005Z,97396.71
2023-04-23T22:15:06.019Z,97395.90
2023-04-23T22:18:07.980Z,97399.22
2023-04-23T22:21:09.732Z,97394.98
2023-04-23T22:24:11.468Z,97391.27
2023-04-23T22:27:13.759Z,97391.30
2023-04-23T22:30:15.698Z,97388.67
2023-04-23T22:33:17.560Z,97390.48
2023-04-23T22:36:20.561Z,97387.70
2023-04-23T22:39:22.359Z,97387.85
2023-04-23T22:42:24.046Z,97385.95
2023-04-23T22:45:25.838Z,97379.38
2023-04-23T22:48:28.092Z,97376.20
2023-04-23T22:51:32.743Z,97380.89
2023-04-23T22:54:34.399Z,97376.67
2023-04-23T22:57:36.135Z,97374.84
2023-04-23T23:00:38.249Z,97369.88
2023-04-23T23:03:40.070Z,97365.36
2023-04-23T23:06:42.624Z,97366.11
2023-04-23T23:09:44.631Z,97359.48
2023-04-23T23:12:46.512Z,97354.80
2023-04-23T23:15:48.252Z,97350.51
2023-04-23T23:18:50.007Z,97350.98
2023-04-23T23:21:51.873Z,97347.49
2023-04-23T23:24:53.959Z,97347.96
2023-04-23T23:27:55.784Z,97346.86
2023-04-23T23:30:57.861Z,97342.75
2023-04-23T23:33:59.738Z,97343.40
2023-04-23T23:37:01.531Z,97344.45
2023-04-23T23:40:05.043Z,97341.68
2023-04-23T23:43:06.839Z,97339.08
2023-04-23T23:46:09.931Z,97334.79
2023-04-23T23:49:11.731Z,97340.41
2023-04-23T23:52:13.514Z,97331.88
2023-04-23T23:55:15.809Z,97329.89
2023-04-23T23:58:17.443Z,97329.77
